createdAt,value
2022-11-21T00:01:25.583Z,13.77
2022-11-21T00:03:53.017Z,12.60
2022-11-21T00:06:20.939Z,15.33
2022-11-21T00:08:47.958Z,12.43
2022-11-21T00:11:16.063Z,13.23
2022-11-21T00:13:44.099Z,11.23
2022-11-21T00:16:16.617Z,12.63
2022-11-21T00:18:44.484Z,12.33
2022-11-21T00:21:20.491Z,15.07
2022-11-21T00:23:47.988Z,13.40
2022-11-21T00:26:16.615Z,14.07
2022-11-21T00:28:44.857Z,13.77
2022-11-21T00:31:23.368Z,11.10
2022-11-21T00:33:50.434Z,16.10
2022-11-21T00:36:17.492Z,13.30
2022-11-21T00:38:44.435Z,14.27
2022-11-21T00:41:11.403Z,13.80
2022-11-21T00:43:38.396Z,12.63
2022-11-21T00:46:05.352Z,15.10
2022-11-21T00:48:33.225Z,12.47
2022-11-21T00:51:00.958Z,14.30
2022-11-21T00:53:28.637Z,14.67
2022-11-21T00:55:55.969Z,12.80
2022-11-21T00:58:23.008Z,14.20
2022-11-21T01:00:50.104Z,12.10
2022-11-21T01:03:17.513Z,11.97
2022-11-21T01:05:44.474Z,12.10
2022-11-21T01:08:11.439Z,13.47
2022-11-21T01:10:38.410Z,15.70
2022-11-21T01:13:05.492Z,15.10
2022-11-21T01:15:34.071Z,13.33
2022-11-21T01:18:01.070Z,13.60
2022-11-21T01:20:27.968Z,11.53
2022-11-21T01:22:54.962Z,16.07
2022-11-21T01:25:21.943Z,15.57
2022-11-21T01:27:48.932Z,15.43
2022-11-21T01:30:15.990Z,17.00
2022-11-21T01:32:43.267Z,14.43
2022-11-21T01:35:10.287Z,14.90
2022-11-21T01:37:37.281Z,14.90
2022-11-21T01:40:04.797Z,13.97
2022-11-21T01:43:00.304Z,12.57
2022-11-21T01:45:58.676Z,14.80
2022-11-21T01:49:12.265Z,16.53
2022-11-21T01:52:04.989Z,12.00
2022-11-21T01:54:57.380Z,14.60
2022-11-21T01:57:37.215Z,13.00
2022-11-21T02:00:16.256Z,15.77
2022-11-21T02:02:50.100Z,13.03
2022-11-21T02:05:23.505Z,14.57
2022-11-21T02:07:52.875Z,13.10
2022-11-21T02:10:19.856Z,16.50
2022-11-21T02:12:52.928Z,15.20
2022-11-21T02:15:23.309Z,13.50
2022-11-21T02:17:50.628Z,12.57
2022-11-21T02:20:21.573Z,10.70
2022-11-21T02:23:07.817Z,13.70
2022-11-21T02:25:37.845Z,15.53
2022-11-21T02:28:09.148Z,13.63
2022-11-21T02:30:39.490Z,12.90
2022-11-21T02:33:06.964Z,11.70
2022-11-21T02:35:34.447Z,15.80
2022-11-21T02:38:18.248Z,12.20
2022-11-21T02:40:55.256Z,14.30
2022-11-21T02:43:24.892Z,14.07
2022-11-21T02:45:51.978Z,14.00
2022-11-21T02:48:18.931Z,14.43
2022-11-21T02:50:47.349Z,14.33
2022-11-21T02:53:18.048Z,12.87
2022-11-21T02:55:45.450Z,16.03
2022-11-21T02:58:12.846Z,15.43
2022-11-21T03:00:42.073Z,17.17
2022-11-21T03:03:09.597Z,13.47
2022-11-21T03:05:37.546Z,13.33
2022-11-21T03:08:05.483Z,12.97
2022-11-21T03:10:33.464Z,16.40
2022-11-21T03:13:03.704Z,15.90
2022-11-21T03:15:33.890Z,15.17
2022-11-21T03:18:02.829Z,14.97
2022-11-21T03:20:34.726Z,17.07
2022-11-21T03:23:02.731Z,14.57
2022-11-21T03:25:29.722Z,16.07
2022-11-21T03:27:56.729Z,13.00
2022-11-21T03:30:26.203Z,16.63
2022-11-21T03:32:56.778Z,15.57
2022-11-21T03:35:24.056Z,13.87
2022-11-21T03:37:50.967Z,16.73
2022-11-21T03:40:18.208Z,15.20
2022-11-21T03:42:45.193Z,13.40
2022-11-21T03:45:12.180Z,16.40
2022-11-21T03:47:39.235Z,24.10
2022-11-21T03:50:06.871Z,17.00
2022-11-21T03:52:33.793Z,16.63
2022-11-21T03:55:00.728Z,18.40
2022-11-21T03:57:27.718Z,17.37
2022-11-21T03:59:54.686Z,18.63
2022-11-21T04:02:21.673Z,16.47
2022-11-21T04:04:49.130Z,15.80
2022-11-21T04:07:16.624Z,18.37
2022-11-21T04:09:43.753Z,16.90
2022-11-21T04:12:10.723Z,18.37
2022-11-21T04:14:37.805Z,18.50
2022-11-21T04:17:04.967Z,18.03
2022-11-21T04:19:31.899Z,17.50
2022-11-21T04:21:58.804Z,19.03
2022-11-21T04:24:26.063Z,16.93
2022-11-21T04:26:55.687Z,17.67
2022-11-21T04:29:22.622Z,15.63
2022-11-21T04:31:49.637Z,17.30
2022-11-21T04:34:16.733Z,17.20
2022-11-21T04:36:43.801Z,19.93
2022-11-21T04:39:10.887Z,15.60
2022-11-21T04:41:37.875Z,17.87
2022-11-21T04:44:05.192Z,19.77
2022-11-21T04:46:32.166Z,18.30
2022-11-21T04:48:59.109Z,17.07
2022-11-21T04:51:26.013Z,18.63
2022-11-21T04:53:52.952Z,18.97
2022-11-21T04:56:19.906Z,20.00
2022-11-21T04:58:46.871Z,16.50
2022-11-21T05:01:13.892Z,13.87
2022-11-21T05:03:40.925Z,17.67
2022-11-21T05:06:08.253Z,19.30
2022-11-21T05:08:35.267Z,19.47
2022-11-21T05:11:20.542Z,17.30
2022-11-21T05:13:47.588Z,16.30
2022-11-21T05:16:14.505Z,18.60
2022-11-21T05:18:41.757Z,16.73
2022-11-21T05:21:08.716Z,16.07
2022-11-21T05:23:35.698Z,18.30
2022-11-21T05:26:02.684Z,17.60
2022-11-21T05:28:29.815Z,21.17
2022-11-21T05:30:56.705Z,19.60
2022-11-21T05:33:23.694Z,19.87
2022-11-21T05:35:50.786Z,19.40
2022-11-21T05:38:17.748Z,16.83
2022-11-21T05:40:44.745Z,23.53
2022-11-21T05:43:31.243Z,18.73
2022-11-21T05:45:58.241Z,17.07
2022-11-21T05:48:25.237Z,18.73
2022-11-21T05:50:52.539Z,16.73
2022-11-21T05:53:19.475Z,19.33
2022-11-21T05:55:46.738Z,19.83
2022-11-21T05:58:14.001Z,18.90
2022-11-21T06:00:41.193Z,17.47
2022-11-21T06:03:28.888Z,20.87
2022-11-21T06:06:19.629Z,18.23
2022-11-21T06:08:48.191Z,20.33
2022-11-21T06:11:16.887Z,19.17
2022-11-21T06:13:44.578Z,19.27
2022-11-21T06:16:18.358Z,19.67
2022-11-21T06:18:48.297Z,18.17
2022-11-21T06:21:25.554Z,17.47
2022-11-21T06:23:55.695Z,17.80
2022-11-21T06:26:25.564Z,18.10
2022-11-21T06:28:53.004Z,16.63
2022-11-21T06:34:18.510Z,17.73
2022-11-21T06:36:45.710Z,18.33
2022-11-21T06:39:12.728Z,20.80
2022-11-21T06:41:39.689Z,17.80
2022-11-21T06:44:06.664Z,18.80
2022-11-21T06:46:33.575Z,19.33
2022-11-21T06:49:00.628Z,17.17
2022-11-21T06:51:27.590Z,16.73
2022-11-21T06:53:57.852Z,20.10
2022-11-21T06:56:26.951Z,20.23
2022-11-21T06:58:54.115Z,17.57
2022-11-21T07:01:21.180Z,17.00
2022-11-21T07:03:48.212Z,20.00
2022-11-21T07:06:15.145Z,18.03
2022-11-21T07:08:42.095Z,17.33
2022-11-21T07:11:29.299Z,15.57
2022-11-21T07:13:56.597Z,18.27
2022-11-21T07:16:26.202Z,15.47
2022-11-21T07:18:53.508Z,14.17
2022-11-21T07:21:20.422Z,17.37
2022-11-21T07:23:48.609Z,21.23
2022-11-21T07:26:15.803Z,21.97
2022-11-21T07:28:43.169Z,22.60
2022-11-21T07:31:13.947Z,20.00
2022-11-21T07:33:43.624Z,21.30
2022-11-21T07:36:12.691Z,21.33
2022-11-21T07:38:41.305Z,18.33
2022-11-21T07:41:09.422Z,18.43
2022-11-21T07:43:36.432Z,18.23
2022-11-21T07:46:03.330Z,18.57
2022-11-21T07:48:30.272Z,20.23
2022-11-21T07:50:57.186Z,26.23
2022-11-21T07:53:24.196Z,27.00
2022-11-21T07:55:51.112Z,22.60
2022-11-21T07:58:18.491Z,22.10
2022-11-21T08:00:45.491Z,26.43
2022-11-21T08:03:13.518Z,19.07
2022-11-21T08:05:43.053Z,20.53
2022-11-21T08:08:16.302Z,25.07
2022-11-21T08:10:45.617Z,21.77
2022-11-21T08:13:13.549Z,22.20
2022-11-21T08:15:40.866Z,21.53
2022-11-21T08:18:13.141Z,23.67
2022-11-21T08:20:40.891Z,22.03
2022-11-21T08:23:08.021Z,23.00
2022-11-21T08:25:38.314Z,24.53
2022-11-21T08:28:06.794Z,22.77
2022-11-21T08:30:35.246Z,26.30
2022-11-21T08:33:02.859Z,23.00
2022-11-21T08:35:29.962Z,26.80
2022-11-21T08:38:01.523Z,21.97
2022-11-21T08:40:30.894Z,25.40
2022-11-21T08:43:06.933Z,23.00
2022-11-21T08:45:36.576Z,23.27
2022-11-21T08:48:04.442Z,24.17
2022-11-21T08:50:32.126Z,22.00
2022-11-21T08:53:03.452Z,28.13
2022-11-21T08:55:31.075Z,24.70
2022-11-21T08:57:58.727Z,26.33
2022-11-21T09:00:25.732Z,24.30
2022-11-21T09:02:52.674Z,26.60
2022-11-21T09:05:19.717Z,22.77
2022-11-21T09:07:47.462Z,25.00
2022-11-21T09:10:15.146Z,22.17
2022-11-21T09:12:42.066Z,23.23
2022-11-21T09:15:30.180Z,18.33
2022-11-21T09:18:04.637Z,23.27
2022-11-21T09:20:34.585Z,21.10
2022-11-21T09:23:12.527Z,18.43
2022-11-21T09:25:39.818Z,16.67
2022-11-21T09:28:10.217Z,16.63
2022-11-21T09:30:37.761Z,17.30
2022-11-21T09:33:07.686Z,18.27
2022-11-21T09:35:34.695Z,17.83
2022-11-21T09:38:01.836Z,16.53
2022-11-21T09:40:33.576Z,16.00
2022-11-21T09:43:32.025Z,15.23
2022-11-21T09:46:17.701Z,13.47
2022-11-21T09:49:05.441Z,17.93
2022-11-21T09:51:32.704Z,14.83
2022-11-21T09:54:15.017Z,15.67
2022-11-21T09:56:43.611Z,12.87
2022-11-21T09:59:37.210Z,14.53
2022-11-21T10:02:19.105Z,16.67
2022-11-21T10:04:47.382Z,15.70
2022-11-21T10:07:35.180Z,13.00
2022-11-21T10:10:32.983Z,14.67
2022-11-21T10:13:29.720Z,12.23
2022-11-21T10:16:12.658Z,13.70
2022-11-21T10:19:04.243Z,14.13
2022-11-21T10:22:07.941Z,13.87
2022-11-21T10:25:24.025Z,13.07
2022-11-21T10:28:16.803Z,12.13
2022-11-21T10:30:46.381Z,12.50
2022-11-21T10:33:25.501Z,11.50
2022-11-21T10:35:58.175Z,12.80
2022-11-21T10:38:29.088Z,13.37
2022-11-21T10:41:26.265Z,12.30
2022-11-21T10:44:43.630Z,12.90
2022-11-21T10:47:28.881Z,11.33
2022-11-21T10:50:08.879Z,11.53
2022-11-21T10:52:49.947Z,11.00
2022-11-21T10:55:18.365Z,12.40
2022-11-21T10:57:51.574Z,11.43
2022-11-21T11:00:23.329Z,17.10
2022-11-21T11:02:56.443Z,11.20
2022-11-21T11:05:28.448Z,15.00
2022-11-21T11:08:09.041Z,12.30
2022-11-21T11:11:02.891Z,11.97
2022-11-21T11:13:50.971Z,12.97
2022-11-21T11:16:24.434Z,12.63
2022-11-21T11:19:13.934Z,13.00
2022-11-21T11:21:40.888Z,11.70
2022-11-21T11:24:10.531Z,11.73
2022-11-21T11:26:52.746Z,13.30
2022-11-21T11:29:25.063Z,13.47
2022-11-21T11:32:00.834Z,14.60
2022-11-21T11:34:38.303Z,12.60
2022-11-21T11:37:41.839Z,12.17
2022-11-21T11:40:26.304Z,13.67
2022-11-21T11:43:41.550Z,11.47
2022-11-21T11:47:32.350Z,12.30
2022-11-21T11:50:24.128Z,16.20
2022-11-21T11:53:23.302Z,10.97
2022-11-21T11:56:15.414Z,9.63
2022-11-21T11:58:55.394Z,11.13
2022-11-21T12:01:46.103Z,10.27
2022-11-21T12:04:23.676Z,10.60
2022-11-21T12:08:33.223Z,13.23
2022-11-21T12:11:11.445Z,9.80
2022-11-21T12:13:39.910Z,11.23
2022-11-21T12:16:14.006Z,9.60
2022-11-21T12:19:03.409Z,11.27
2022-11-21T12:21:30.422Z,9.50
2022-11-21T12:23:58.972Z,10.40
2022-11-21T12:27:22.433Z,12.10
2022-11-21T12:30:19.508Z,10.10
2022-11-21T12:33:08.828Z,11.10
2022-11-21T12:36:16.250Z,10.20
2022-11-21T12:39:37.933Z,9.20
2022-11-21T12:42:55.511Z,9.70
2022-11-21T12:45:38.087Z,9.33
2022-11-21T12:48:45.298Z,11.90
2022-11-21T12:51:55.363Z,12.73
2022-11-21T12:54:43.624Z,12.50
2022-11-21T12:57:16.774Z,12.93
2022-11-21T12:59:58.643Z,13.00
2022-11-21T13:02:34.031Z,11.27
2022-11-21T13:05:04.462Z,11.20
2022-11-21T13:07:32.445Z,11.33
2022-11-21T13:10:03.150Z,11.90
2022-11-21T13:12:48.819Z,10.93
2022-11-21T13:15:31.743Z,13.17
2022-11-21T13:18:30.901Z,12.20
2022-11-21T13:20:59.092Z,12.83
2022-11-21T13:23:39.413Z,13.70
2022-11-21T13:26:24.634Z,12.67
2022-11-21T13:29:10.327Z,12.00
2022-11-21T13:31:38.101Z,11.03
2022-11-21T13:34:29.667Z,15.73
2022-11-21T13:36:56.778Z,12.17
2022-11-21T13:39:32.793Z,11.83
2022-11-21T13:42:29.365Z,13.00
2022-11-21T13:44:57.230Z,11.30
2022-11-21T13:47:55.765Z,11.37
2022-11-21T13:51:14.929Z,10.90
2022-11-21T13:54:23.161Z,10.43
2022-11-21T13:57:20.196Z,12.77
2022-11-21T14:00:20.422Z,13.63
2022-11-21T14:03:29.771Z,10.27
2022-11-21T14:06:38.018Z,13.20
2022-11-21T14:09:20.499Z,12.57
2022-11-21T14:12:01.371Z,13.80
2022-11-21T14:14:49.650Z,10.43
2022-11-21T14:17:41.321Z,12.37
2022-11-21T14:20:31.677Z,9.70
2022-11-21T14:23:05.886Z,9.80
2022-11-21T14:25:49.298Z,10.37
2022-11-21T14:28:22.620Z,9.83
2022-11-21T14:31:07.110Z,9.83
2022-11-21T14:33:38.193Z,9.03
2022-11-21T14:36:26.042Z,9.13
2022-11-21T14:39:36.400Z,11.03
2022-11-21T14:41:57.036Z,9.57
2022-11-21T14:44:24.850Z,10.93
2022-11-21T14:47:09.170Z,12.13
2022-11-21T14:49:36.356Z,12.13
2022-11-21T14:52:19.748Z,11.33
2022-11-21T14:55:28.939Z,9.93
2022-11-21T14:57:54.864Z,10.93
2022-11-21T15:03:23.651Z,10.53
2022-11-21T15:06:06.816Z,10.27
2022-11-21T15:09:33.272Z,9.87
2022-11-21T15:11:33.739Z,9.60
2022-11-21T15:14:15.856Z,11.03
2022-11-21T15:16:50.483Z,12.93
2022-11-21T15:19:24.015Z,10.83
2022-11-21T15:21:53.501Z,9.47
2022-11-21T15:24:29.741Z,10.50
2022-11-21T15:26:57.973Z,15.20
2022-11-21T15:29:25.630Z,13.70
2022-11-21T15:32:15.822Z,11.30
2022-11-21T15:34:43.763Z,9.93
2022-11-21T15:37:17.413Z,12.47
2022-11-21T15:39:50.324Z,11.90
2022-11-21T15:42:37.216Z,9.27
2022-11-21T15:48:07.090Z,9.40
2022-11-21T15:50:34.722Z,16.13
2022-11-21T15:53:01.650Z,12.60
2022-11-21T15:55:31.605Z,11.67
2022-11-21T15:57:10.618Z,11.47
2022-11-21T15:57:58.532Z,10.50
2022-11-21T16:00:25.987Z,11.93
2022-11-21T16:02:53.052Z,9.40
2022-11-21T16:05:20.049Z,10.40
2022-11-21T16:07:48.606Z,10.00
2022-11-21T16:10:22.676Z,11.50
2022-11-21T16:12:54.392Z,13.13
2022-11-21T16:15:21.621Z,10.03
2022-11-21T16:17:48.543Z,10.50
2022-11-21T16:20:15.801Z,12.13
2022-11-21T16:22:47.765Z,12.40
2022-11-21T16:25:16.138Z,13.67
2022-11-21T16:27:43.123Z,12.43
2022-11-21T16:30:10.702Z,12.23
2022-11-21T16:32:37.619Z,11.90
2022-11-21T16:35:05.534Z,13.50
2022-11-21T16:37:33.167Z,14.10
2022-11-21T16:40:00.138Z,13.70
2022-11-21T16:42:27.147Z,16.23
2022-11-21T16:44:54.218Z,13.10
2022-11-21T16:47:21.119Z,15.77
2022-11-21T16:49:49.189Z,15.77
2022-11-21T16:52:18.099Z,15.53
2022-11-21T16:54:45.187Z,20.83
2022-11-21T16:57:12.126Z,18.07
2022-11-21T16:59:39.441Z,15.50
2022-11-21T17:02:06.739Z,17.90
2022-11-21T17:04:34.744Z,15.30
2022-11-21T17:07:02.269Z,13.23
2022-11-21T17:09:29.861Z,16.63
2022-11-21T17:11:59.785Z,17.77
2022-11-21T17:14:27.563Z,15.93
2022-11-21T17:16:54.725Z,14.03
2022-11-21T17:19:23.263Z,13.87
2022-11-21T17:21:50.242Z,17.20
2022-11-21T17:24:17.944Z,19.00
2022-11-21T17:26:44.890Z,17.33
2022-11-21T17:29:12.194Z,19.40
2022-11-21T17:31:41.780Z,17.47
2022-11-21T17:34:08.964Z,18.17
2022-11-21T17:36:35.918Z,20.57
2022-11-21T17:39:03.622Z,16.17
2022-11-21T17:41:30.565Z,15.10
2022-11-21T17:43:58.792Z,18.03
2022-11-21T17:46:26.309Z,18.57
2022-11-21T17:48:58.453Z,16.67
2022-11-21T17:51:30.128Z,21.70
2022-11-21T17:53:57.787Z,17.17
2022-11-21T17:56:28.296Z,18.57
2022-11-21T17:58:56.016Z,17.60
2022-11-21T18:01:23.022Z,18.47
2022-11-21T18:04:02.868Z,18.40
2022-11-21T18:06:37.937Z,17.40
2022-11-21T18:09:07.912Z,17.47
2022-11-21T18:11:39.990Z,15.90
2022-11-21T18:14:09.037Z,16.97
2022-11-21T18:16:36.358Z,15.90
2022-11-21T18:19:03.337Z,17.13
2022-11-21T18:21:33.229Z,15.67
2022-11-21T18:24:00.465Z,15.60
2022-11-21T18:26:34.274Z,14.37
2022-11-21T18:31:50.840Z,15.63
2022-11-21T18:34:17.783Z,15.87
2022-11-21T18:36:44.804Z,16.27
2022-11-21T18:39:15.228Z,17.57
2022-11-21T18:41:43.684Z,15.23
2022-11-21T18:44:14.635Z,32.50
2022-11-21T18:46:44.232Z,15.43
2022-11-21T18:49:11.154Z,18.37
2022-11-21T18:51:38.223Z,14.27
2022-11-21T18:54:09.554Z,14.97
2022-11-21T18:56:38.258Z,15.63
2022-11-21T18:59:08.477Z,16.10
2022-11-21T19:01:37.368Z,16.53
2022-11-21T19:04:05.178Z,17.90
2022-11-21T19:06:32.651Z,17.60
2022-11-21T19:08:59.806Z,17.33
2022-11-21T19:11:29.836Z,14.40
2022-11-21T19:13:58.011Z,17.87
2022-11-21T19:16:31.174Z,17.17
2022-11-21T19:21:47.043Z,17.97
2022-11-21T19:24:15.495Z,20.40
2022-11-21T19:26:43.217Z,18.50
2022-11-21T19:29:10.862Z,19.37
2022-11-21T19:31:44.531Z,18.13
2022-11-21T19:34:16.524Z,19.10
2022-11-21T19:36:44.787Z,19.43
2022-11-21T19:39:12.236Z,19.90
2022-11-21T19:41:39.695Z,16.60
2022-11-21T19:44:06.767Z,17.37
2022-11-21T19:46:37.985Z,18.10
2022-11-21T19:49:07.259Z,19.10
2022-11-21T19:51:38.131Z,16.73
2022-11-21T19:54:07.198Z,17.93
2022-11-21T19:56:34.575Z,20.73
2022-11-21T19:59:01.561Z,20.63
2022-11-21T20:01:31.493Z,20.70
2022-11-21T20:04:03.707Z,28.20
2022-11-21T20:06:37.173Z,22.90
2022-11-21T20:09:08.567Z,27.03
2022-11-21T20:11:36.642Z,26.57
2022-11-21T20:14:04.014Z,21.77
2022-11-21T20:16:41.428Z,21.23
2022-11-21T20:19:15.303Z,23.23
2022-11-21T20:21:43.934Z,20.70
2022-11-21T20:24:12.511Z,20.83
2022-11-21T20:26:40.175Z,21.90
2022-11-21T20:29:07.794Z,24.27
2022-11-21T20:31:37.408Z,22.83
2022-11-21T20:34:08.067Z,24.10
2022-11-21T20:36:39.105Z,22.73
2022-11-21T20:39:08.675Z,24.33
2022-11-21T20:41:36.731Z,23.20
2022-11-21T20:46:54.131Z,26.40
2022-11-21T20:49:21.066Z,32.57
2022-11-21T20:53:20.598Z,25.87
2022-11-21T20:54:35.381Z,29.00
2022-11-21T20:57:02.350Z,24.03
2022-11-21T20:59:29.861Z,25.87
2022-11-21T21:01:57.025Z,24.07
2022-11-21T21:04:24.016Z,25.77
2022-11-21T21:06:50.922Z,25.07
2022-11-21T21:09:18.078Z,27.23
2022-11-21T21:11:53.387Z,21.67
2022-11-21T21:14:22.266Z,24.50
2022-11-21T21:16:50.044Z,22.27
2022-11-21T21:19:17.426Z,28.20
2022-11-21T21:21:44.666Z,24.07
2022-11-21T21:24:12.918Z,24.47
2022-11-21T21:26:44.636Z,25.80
2022-11-21T21:29:15.701Z,21.60
2022-11-21T21:31:50.074Z,24.97
2022-11-21T21:34:20.271Z,26.17
2022-11-21T21:36:47.447Z,23.73
2022-11-21T21:39:14.478Z,24.60
2022-11-21T21:41:44.724Z,25.40
2022-11-21T21:44:12.242Z,22.90
2022-11-21T21:46:39.172Z,23.67
2022-11-21T21:49:06.253Z,25.17
2022-11-21T21:51:33.164Z,23.13
2022-11-21T21:54:00.362Z,28.10
2022-11-21T21:56:29.092Z,24.50
2022-11-21T21:58:59.714Z,26.57
2022-11-21T22:01:32.327Z,28.43
2022-11-21T22:04:04.968Z,25.03
2022-11-21T22:06:35.466Z,29.60
2022-11-21T22:09:03.339Z,29.00
2022-11-21T22:11:35.172Z,25.97
2022-11-21T22:14:06.608Z,26.33
2022-11-21T22:16:33.843Z,25.97
2022-11-21T22:19:00.812Z,27.03
2022-11-21T22:21:33.669Z,28.87
2022-11-21T22:24:24.187Z,27.07
2022-11-21T22:26:50.455Z,28.10
2022-11-21T22:29:17.467Z,27.37
2022-11-21T22:31:44.537Z,27.80
2022-11-21T22:34:13.947Z,27.13
2022-11-21T22:36:41.496Z,29.00
2022-11-21T22:39:09.035Z,25.27
2022-11-21T22:41:36.210Z,26.20
2022-11-21T22:44:03.110Z,24.77
2022-11-21T22:46:31.193Z,32.33
2022-11-21T22:48:58.497Z,24.97
2022-11-21T22:51:29.177Z,28.80
2022-11-21T22:53:56.460Z,23.87
2022-11-21T22:56:25.134Z,24.33
2022-11-21T22:58:52.893Z,23.60
2022-11-21T23:01:23.263Z,24.90
2022-11-21T23:03:51.359Z,23.70
2022-11-21T23:06:27.357Z,28.40
2022-11-21T23:08:56.083Z,25.20
2022-11-21T23:11:27.505Z,29.90
2022-11-21T23:13:55.749Z,23.90
2022-11-21T23:16:23.237Z,26.33
2022-11-21T23:18:53.775Z,26.83
2022-11-21T23:21:21.393Z,30.10
2022-11-21T23:23:48.594Z,26.37
2022-11-21T23:26:16.670Z,33.67
2022-11-21T23:28:43.580Z,26.30
2022-11-21T23:31:11.208Z,27.80
2022-11-21T23:33:38.486Z,25.13
2022-11-21T23:36:05.906Z,23.50
2022-11-21T23:38:32.922Z,29.57
2022-11-21T23:40:59.823Z,23.10
2022-11-21T23:43:27.199Z,28.57
2022-11-21T23:45:54.953Z,24.20
2022-11-21T23:48:24.141Z,24.70
2022-11-21T23:50:52.010Z,23.23
2022-11-21T23:53:20.454Z,24.33
2022-11-21T23:55:48.347Z,27.50
2022-11-21T23:58:15.664Z,25.67
